KOWB 230856Z AUTO 20007KT 10SM -RA BKN055 OVC100 22/21 A2999 RMK AO2 RAE08B43 SLP153 P0001 60002 T02170206 58012